sensor_id;sensor_type;location;lat;lon;timestamp;P1;durP1;ratioP1;P2;durP2;ratioP2
27977;SDS011;15314;49.248;6.968;2023-10-31T00:00:02;7.55;;;7.25;;
27977;SDS011;15314;49.248;6.968;2023-10-31T00:01:03;7.45;;;7.00;;
27977;SDS011;15314;49.248;6.968;2023-10-31T00:02:04;7.90;;;7.40;;
27977;SDS011;15314;49.248;6.968;2023-10-31T00:03:05;7.88;;;7.25;;
27977;SDS011;15314;49.248;6.968;2023-10-31T00:04:05;7.95;;;7.35;;
27977;SDS011;15314;49.248;6.968;2023-10-31T00:05:06;7.82;;;7.32;;
27977;SDS011;15314;49.248;6.968;2023-10-31T00:06:07;7.90;;;7.50;;
27977;SDS011;15314;49.248;6.968;2023-10-31T00:07:07;8.27;;;7.78;;
27977;SDS011;15314;49.248;6.968;2023-10-31T00:08:08;7.93;;;7.43;;
27977;SDS011;15314;49.248;6.968;2023-10-31T00:09:09;8.23;;;7.63;;
27977;SDS011;15314;49.248;6.968;2023-10-31T00:10:10;7.95;;;7.55;;
27977;SDS011;15314;49.248;6.968;2023-10-31T00:11:11;7.85;;;7.40;;
27977;SDS011;15314;49.248;6.968;2023-10-31T00:12:12;8.43;;;7.90;;
27977;SDS011;15314;49.248;6.968;2023-10-31T00:13:13;7.50;;;7.07;;
27977;SDS011;15314;49.248;6.968;2023-10-31T00:14:13;7.57;;;7.13;;
27977;SDS011;15314;49.248;6.968;2023-10-31T00:15:14;7.80;;;7.50;;
27977;SDS011;15314;49.248;6.968;2023-10-31T00:16:14;7.82;;;7.53;;
27977;SDS011;15314;49.248;6.968;2023-10-31T00:17:15;8.63;;;8.13;;
27977;SDS011;15314;49.248;6.968;2023-10-31T00:18:15;7.95;;;7.55;;
27977;SDS011;15314;49.248;6.968;2023-10-31T00:19:16;7.80;;;7.40;;
27977;SDS011;15314;49.248;6.968;2023-10-31T00:20:17;7.75;;;7.32;;
27977;SDS011;15314;49.248;6.968;2023-10-31T00:21:18;8.48;;;7.90;;
27977;SDS011;15314;49.248;6.968;2023-10-31T00:22:19;8.55;;;7.97;;
27977;SDS011;15314;49.248;6.968;2023-10-31T00:23:21;8.32;;;7.82;;
27977;SDS011;15314;49.248;6.968;2023-10-31T00:24:22;7.35;;;7.05;;
27977;SDS011;15314;49.248;6.968;2023-10-31T00:25:23;8.13;;;7.65;;
27977;SDS011;15314;49.248;6.968;2023-10-31T00:26:23;8.75;;;8.20;;
27977;SDS011;15314;49.248;6.968;2023-10-31T00:27:24;8.30;;;7.90;;
27977;SDS011;15314;49.248;6.968;2023-10-31T00:28:24;8.10;;;7.50;;
27977;SDS011;15314;49.248;6.968;2023-10-31T00:29:25;8.30;;;7.80;;
27977;SDS011;15314;49.248;6.968;2023-10-31T00:30:25;8.27;;;7.70;;
27977;SDS011;15314;49.248;6.968;2023-10-31T00:31:26;8.48;;;7.80;;
27977;SDS011;15314;49.248;6.968;2023-10-31T00:32:27;8.15;;;7.80;;
27977;SDS011;15314;49.248;6.968;2023-10-31T00:33:27;8.43;;;8.02;;
27977;SDS011;15314;49.248;6.968;2023-10-31T00:34:28;8.43;;;7.93;;
27977;SDS011;15314;49.248;6.968;2023-10-31T00:35:29;7.75;;;7.35;;
27977;SDS011;15314;49.248;6.968;2023-10-31T00:36:30;8.27;;;7.78;;
27977;SDS011;15314;49.248;6.968;2023-10-31T00:37:31;7.90;;;7.40;;
27977;SDS011;15314;49.248;6.968;2023-10-31T00:38:32;8.07;;;7.63;;
27977;SDS011;15314;49.248;6.968;2023-10-31T00:39:32;7.90;;;7.50;;
27977;SDS011;15314;49.248;6.968;2023-10-31T00:40:34;8.20;;;7.60;;
27977;SDS011;15314;49.248;6.968;2023-10-31T00:41:34;8.23;;;7.75;;
27977;SDS011;15314;49.248;6.968;2023-10-31T00:42:35;7.93;;;7.60;;
27977;SDS011;15314;49.248;6.968;2023-10-31T00:43:35;8.20;;;7.70;;
27977;SDS011;15314;49.248;6.968;2023-10-31T00:44:36;7.95;;;7.45;;
27977;SDS011;15314;49.248;6.968;2023-10-31T00:45:37;8.45;;;8.05;;
27977;SDS011;15314;49.248;6.968;2023-10-31T00:46:37;8.15;;;7.75;;
27977;SDS011;15314;49.248;6.968;2023-10-31T00:47:38;8.48;;;7.97;;
27977;SDS011;15314;49.248;6.968;2023-10-31T00:48:38;8.48;;;7.97;;
27977;SDS011;15314;49.248;6.968;2023-10-31T00:49:39;8.40;;;7.78;;
27977;SDS011;15314;49.248;6.968;2023-10-31T00:50:40;7.70;;;7.30;;
27977;SDS011;15314;49.248;6.968;2023-10-31T00:51:40;8.20;;;7.70;;
27977;SDS011;15314;49.248;6.968;2023-10-31T00:52:41;8.05;;;7.75;;
27977;SDS011;15314;49.248;6.968;2023-10-31T00:53:41;8.27;;;7.63;;
27977;SDS011;15314;49.248;6.968;2023-10-31T00:54:42;8.68;;;8.05;;
27977;SDS011;15314;49.248;6.968;2023-10-31T00:55:43;7.60;;;7.18;;
27977;SDS011;15314;49.248;6.968;2023-10-31T00:56:44;8.57;;;7.97;;
27977;SDS011;15314;49.248;6.968;2023-10-31T00:57:45;8.73;;;7.95;;
27977;SDS011;15314;49.248;6.968;2023-10-31T00:58:46;7.97;;;7.55;;
27977;SDS011;15314;49.248;6.968;2023-10-31T00:59:46;8.82;;;8.07;;
27977;SDS011;15314;49.248;6.968;2023-10-31T01:00:47;7.93;;;7.53;;
27977;SDS011;15314;49.248;6.968;2023-10-31T01:01:48;8.15;;;7.75;;
27977;SDS011;15314;49.248;6.968;2023-10-31T01:02:48;8.43;;;7.60;;
27977;SDS011;15314;49.248;6.968;2023-10-31T01:03:49;7.90;;;7.40;;
27977;SDS011;15314;49.248;6.968;2023-10-31T01:04:49;8.30;;;7.50;;
27977;SDS011;15314;49.248;6.968;2023-10-31T01:05:50;8.30;;;7.78;;
27977;SDS011;15314;49.248;6.968;2023-10-31T01:06:51;8.23;;;7.53;;
27977;SDS011;15314;49.248;6.968;2023-10-31T01:07:51;7.95;;;7.55;;
27977;SDS011;15314;49.248;6.968;2023-10-31T01:08:52;8.15;;;7.68;;
27977;SDS011;15314;49.248;6.968;2023-10-31T01:09:53;7.82;;;7.43;;
27977;SDS011;15314;49.248;6.968;2023-10-31T01:10:53;8.40;;;7.90;;
27977;SDS011;15314;49.248;6.968;2023-10-31T01:11:54;8.48;;;7.97;;
27977;SDS011;15314;49.248;6.968;2023-10-31T01:12:55;8.63;;;8.13;;
27977;SDS011;15314;49.248;6.968;2023-10-31T01:13:55;8.50;;;8.00;;
27977;SDS011;15314;49.248;6.968;2023-10-31T01:14:56;8.30;;;7.90;;
27977;SDS011;15314;49.248;6.968;2023-10-31T01:15:57;8.50;;;7.80;;
27977;SDS011;15314;49.248;6.968;2023-10-31T01:16:57;8.30;;;7.82;;
27977;SDS011;15314;49.248;6.968;2023-10-31T01:17:58;8.98;;;8.32;;
27977;SDS011;15314;49.248;6.968;2023-10-31T01:18:59;8.18;;;7.70;;
27977;SDS011;15314;49.248;6.968;2023-10-31T01:19:59;8.48;;;8.02;;
27977;SDS011;15314;49.248;6.968;2023-10-31T01:21:00;8.27;;;7.78;;
27977;SDS011;15314;49.248;6.968;2023-10-31T01:22:01;8.05;;;7.45;;
27977;SDS011;15314;49.248;6.968;2023-10-31T01:23:01;8.75;;;7.90;;
27977;SDS011;15314;49.248;6.968;2023-10-31T01:24:02;8.27;;;7.60;;
27977;SDS011;15314;49.248;6.968;2023-10-31T01:25:03;7.80;;;7.32;;
27977;SDS011;15314;49.248;6.968;2023-10-31T01:26:04;8.20;;;7.90;;
27977;SDS011;15314;49.248;6.968;2023-10-31T01:27:05;8.23;;;7.50;;
27977;SDS011;15314;49.248;6.968;2023-10-31T01:28:05;8.30;;;7.70;;
27977;SDS011;15314;49.248;6.968;2023-10-31T01:29:06;8.18;;;7.78;;
27977;SDS011;15314;49.248;6.968;2023-10-31T01:30:07;8.65;;;8.10;;
27977;SDS011;15314;49.248;6.968;2023-10-31T01:31:08;8.35;;;7.72;;
27977;SDS011;15314;49.248;6.968;2023-10-31T01:32:09;8.55;;;7.78;;
27977;SDS011;15314;49.248;6.968;2023-10-31T01:33:10;8.23;;;7.78;;
27977;SDS011;15314;49.248;6.968;2023-10-31T01:34:10;8.23;;;7.63;;
27977;SDS011;15314;49.248;6.968;2023-10-31T01:35:11;8.00;;;7.55;;
27977;SDS011;15314;49.248;6.968;2023-10-31T01:36:12;8.60;;;8.00;;
27977;SDS011;15314;49.248;6.968;2023-10-31T01:37:14;8.45;;;7.97;;
27977;SDS011;15314;49.248;6.968;2023-10-31T01:38:15;8.30;;;7.90;;
27977;SDS011;15314;49.248;6.968;2023-10-31T01:39:16;8.63;;;8.07;;
27977;SDS011;15314;49.248;6.968;2023-10-31T01:40:16;8.75;;;8.13;;
27977;SDS011;15314;49.248;6.968;2023-10-31T01:41:17;8.48;;;7.93;;
27977;SDS011;15314;49.248;6.968;2023-10-31T01:42:18;8.27;;;7.82;;
27977;SDS011;15314;49.248;6.968;2023-10-31T01:43:34;8.70;;;7.88;;
27977;SDS011;15314;49.248;6.968;2023-10-31T01:44:36;8.52;;;8.02;;
27977;SDS011;15314;49.248;6.968;2023-10-31T01:45:37;8.00;;;7.60;;
27977;SDS011;15314;49.248;6.968;2023-10-31T01:46:37;8.30;;;7.75;;
27977;SDS011;15314;49.248;6.968;2023-10-31T01:47:38;8.40;;;8.00;;
27977;SDS011;15314;49.248;6.968;2023-10-31T01:48:39;8.60;;;8.20;;
27977;SDS011;15314;49.248;6.968;2023-10-31T01:49:40;8.07;;;7.78;;
27977;SDS011;15314;49.248;6.968;2023-10-31T01:50:41;8.65;;;8.18;;
27977;SDS011;15314;49.248;6.968;2023-10-31T01:51:42;8.48;;;7.97;;
27977;SDS011;15314;49.248;6.968;2023-10-31T01:52:44;8.30;;;7.80;;
27977;SDS011;15314;49.248;6.968;2023-10-31T01:53:45;8.15;;;7.68;;
27977;SDS011;15314;49.248;6.968;2023-10-31T01:54:47;8.52;;;8.00;;
27977;SDS011;15314;49.248;6.968;2023-10-31T01:55:49;8.20;;;7.70;;
27977;SDS011;15314;49.248;6.968;2023-10-31T01:56:50;8.70;;;7.95;;
27977;SDS011;15314;49.248;6.968;2023-10-31T01:57:54;8.32;;;7.90;;
27977;SDS011;15314;49.248;6.968;2023-10-31T01:58:54;8.30;;;7.90;;
27977;SDS011;15314;49.248;6.968;2023-10-31T01:59:55;8.68;;;8.10;;
27977;SDS011;15314;49.248;6.968;2023-10-31T02:00:56;9.18;;;8.25;;
27977;SDS011;15314;49.248;6.968;2023-10-31T02:01:59;8.63;;;8.23;;
27977;SDS011;15314;49.248;6.968;2023-10-31T02:03:01;8.63;;;8.13;;
27977;SDS011;15314;49.248;6.968;2023-10-31T02:04:03;8.43;;;8.02;;
27977;SDS011;15314;49.248;6.968;2023-10-31T02:05:05;8.77;;;8.23;;
27977;SDS011;15314;49.248;6.968;2023-10-31T02:06:06;8.88;;;8.38;;
27977;SDS011;15314;49.248;6.968;2023-10-31T02:07:07;8.48;;;8.18;;
27977;SDS011;15314;49.248;6.968;2023-10-31T02:08:08;8.95;;;8.23;;
27977;SDS011;15314;49.248;6.968;2023-10-31T02:09:08;9.23;;;8.65;;
27977;SDS011;15314;49.248;6.968;2023-10-31T02:10:09;8.52;;;8.10;;
27977;SDS011;15314;49.248;6.968;2023-10-31T02:11:10;8.50;;;8.07;;
27977;SDS011;15314;49.248;6.968;2023-10-31T02:12:10;8.45;;;7.95;;
27977;SDS011;15314;49.248;6.968;2023-10-31T02:13:14;9.07;;;8.43;;
27977;SDS011;15314;49.248;6.968;2023-10-31T02:14:16;9.18;;;8.27;;
27977;SDS011;15314;49.248;6.968;2023-10-31T02:15:19;8.82;;;8.32;;
27977;SDS011;15314;49.248;6.968;2023-10-31T02:16:26;8.52;;;8.05;;
27977;SDS011;15314;49.248;6.968;2023-10-31T02:17:27;8.85;;;8.30;;
27977;SDS011;15314;49.248;6.968;2023-10-31T02:18:28;8.55;;;7.97;;
27977;SDS011;15314;49.248;6.968;2023-10-31T02:19:29;7.78;;;7.32;;
27977;SDS011;15314;49.248;6.968;2023-10-31T02:20:30;8.38;;;7.97;;
27977;SDS011;15314;49.248;6.968;2023-10-31T02:21:33;8.38;;;7.78;;
27977;SDS011;15314;49.248;6.968;2023-10-31T02:22:34;9.20;;;8.50;;
27977;SDS011;15314;49.248;6.968;2023-10-31T02:23:35;9.00;;;8.45;;
27977;SDS011;15314;49.248;6.968;2023-10-31T02:24:35;8.20;;;7.60;;
27977;SDS011;15314;49.248;6.968;2023-10-31T02:25:36;8.50;;;7.95;;
27977;SDS011;15314;49.248;6.968;2023-10-31T02:26:37;8.88;;;8.27;;
27977;SDS011;15314;49.248;6.968;2023-10-31T02:27:37;9.20;;;8.55;;
27977;SDS011;15314;49.248;6.968;2023-10-31T02:28:38;8.80;;;8.30;;
27977;SDS011;15314;49.248;6.968;2023-10-31T02:29:39;9.43;;;8.77;;
27977;SDS011;15314;49.248;6.968;2023-10-31T02:30:40;8.82;;;8.10;;
27977;SDS011;15314;49.248;6.968;2023-10-31T02:31:41;8.45;;;7.95;;
27977;SDS011;15314;49.248;6.968;2023-10-31T02:32:41;8.43;;;7.82;;
27977;SDS011;15314;49.248;6.968;2023-10-31T02:33:42;8.20;;;7.90;;
27977;SDS011;15314;49.248;6.968;2023-10-31T02:34:44;9.00;;;8.27;;
27977;SDS011;15314;49.248;6.968;2023-10-31T02:35:45;8.75;;;8.18;;
27977;SDS011;15314;49.248;6.968;2023-10-31T02:36:45;8.70;;;7.97;;
27977;SDS011;15314;49.248;6.968;2023-10-31T02:37:46;8.73;;;8.23;;
27977;SDS011;15314;49.248;6.968;2023-10-31T02:38:47;8.48;;;7.97;;
27977;SDS011;15314;49.248;6.968;2023-10-31T02:39:48;9.20;;;7.93;;
27977;SDS011;15314;49.248;6.968;2023-10-31T02:40:49;9.00;;;8.30;;
27977;SDS011;15314;49.248;6.968;2023-10-31T02:41:49;7.80;;;7.50;;
27977;SDS011;15314;49.248;6.968;2023-10-31T02:42:50;8.18;;;7.78;;
27977;SDS011;15314;49.248;6.968;2023-10-31T02:43:51;8.35;;;7.95;;
27977;SDS011;15314;49.248;6.968;2023-10-31T02:44:55;9.35;;;8.45;;
27977;SDS011;15314;49.248;6.968;2023-10-31T02:45:55;8.52;;;8.10;;
27977;SDS011;15314;49.248;6.968;2023-10-31T02:46:56;8.48;;;7.90;;
27977;SDS011;15314;49.248;6.968;2023-10-31T02:47:57;8.80;;;8.27;;
27977;SDS011;15314;49.248;6.968;2023-10-31T02:48:57;8.00;;;7.50;;
27977;SDS011;15314;49.248;6.968;2023-10-31T02:49:58;7.75;;;7.45;;
27977;SDS011;15314;49.248;6.968;2023-10-31T02:50:58;8.15;;;7.75;;
27977;SDS011;15314;49.248;6.968;2023-10-31T02:51:59;8.57;;;8.10;;
27977;SDS011;15314;49.248;6.968;2023-10-31T02:53:00;8.45;;;7.95;;
27977;SDS011;15314;49.248;6.968;2023-10-31T02:54:00;8.40;;;7.90;;
27977;SDS011;15314;49.248;6.968;2023-10-31T02:55:01;8.77;;;8.00;;
27977;SDS011;15314;49.248;6.968;2023-10-31T02:56:02;8.15;;;7.72;;
27977;SDS011;15314;49.248;6.968;2023-10-31T02:57:03;8.32;;;7.90;;
27977;SDS011;15314;49.248;6.968;2023-10-31T02:58:03;8.50;;;8.10;;
27977;SDS011;15314;49.248;6.968;2023-10-31T02:59:04;8.20;;;7.70;;
27977;SDS011;15314;49.248;6.968;2023-10-31T03:00:05;8.20;;;7.60;;
27977;SDS011;15314;49.248;6.968;2023-10-31T03:01:06;7.63;;;7.30;;
27977;SDS011;15314;49.248;6.968;2023-10-31T03:02:07;8.15;;;7.55;;
27977;SDS011;15314;49.248;6.968;2023-10-31T03:03:08;8.40;;;7.80;;
27977;SDS011;15314;49.248;6.968;2023-10-31T03:04:08;8.20;;;7.72;;
27977;SDS011;15314;49.248;6.968;2023-10-31T03:05:09;8.50;;;8.00;;
27977;SDS011;15314;49.248;6.968;2023-10-31T03:06:10;8.55;;;8.05;;
27977;SDS011;15314;49.248;6.968;2023-10-31T03:07:10;8.10;;;7.70;;
27977;SDS011;15314;49.248;6.968;2023-10-31T03:08:11;8.48;;;7.88;;
27977;SDS011;15314;49.248;6.968;2023-10-31T03:09:13;8.35;;;7.85;;
27977;SDS011;15314;49.248;6.968;2023-10-31T03:10:13;8.95;;;8.40;;
27977;SDS011;15314;49.248;6.968;2023-10-31T03:11:21;8.02;;;7.55;;
27977;SDS011;15314;49.248;6.968;2023-10-31T03:12:25;8.32;;;7.90;;
27977;SDS011;15314;49.248;6.968;2023-10-31T03:13:25;8.00;;;7.50;;
27977;SDS011;15314;49.248;6.968;2023-10-31T03:14:26;8.07;;;7.28;;
27977;SDS011;15314;49.248;6.968;2023-10-31T03:15:27;8.32;;;7.60;;
27977;SDS011;15314;49.248;6.968;2023-10-31T03:16:28;7.40;;;7.05;;
27977;SDS011;15314;49.248;6.968;2023-10-31T03:17:29;7.80;;;7.30;;
27977;SDS011;15314;49.248;6.968;2023-10-31T03:18:29;8.13;;;7.40;;
27977;SDS011;15314;49.248;6.968;2023-10-31T03:19:30;8.85;;;8.15;;
27977;SDS011;15314;49.248;6.968;2023-10-31T03:20:31;8.25;;;7.65;;
27977;SDS011;15314;49.248;6.968;2023-10-31T03:21:31;7.88;;;7.43;;
27977;SDS011;15314;49.248;6.968;2023-10-31T03:22:32;8.45;;;8.05;;
27977;SDS011;15314;49.248;6.968;2023-10-31T03:23:33;8.18;;;7.43;;
27977;SDS011;15314;49.248;6.968;2023-10-31T03:24:33;8.30;;;7.90;;
27977;SDS011;15314;49.248;6.968;2023-10-31T03:25:34;8.70;;;8.20;;
27977;SDS011;15314;49.248;6.968;2023-10-31T03:26:35;8.45;;;7.78;;
27977;SDS011;15314;49.248;6.968;2023-10-31T03:27:35;8.60;;;8.15;;
27977;SDS011;15314;49.248;6.968;2023-10-31T03:28:36;8.60;;;8.20;;
27977;SDS011;15314;49.248;6.968;2023-10-31T03:29:37;8.82;;;8.32;;
27977;SDS011;15314;49.248;6.968;2023-10-31T03:30:37;8.77;;;8.07;;
27977;SDS011;15314;49.248;6.968;2023-10-31T03:31:38;8.82;;;8.18;;
27977;SDS011;15314;49.248;6.968;2023-10-31T03:32:38;8.52;;;8.07;;
27977;SDS011;15314;49.248;6.968;2023-10-31T03:33:39;8.38;;;7.97;;
27977;SDS011;15314;49.248;6.968;2023-10-31T03:34:41;8.90;;;8.30;;
27977;SDS011;15314;49.248;6.968;2023-10-31T03:35:42;7.63;;;7.25;;
27977;SDS011;15314;49.248;6.968;2023-10-31T03:36:43;8.20;;;7.63;;
27977;SDS011;15314;49.248;6.968;2023-10-31T03:37:44;8.27;;;7.78;;
27977;SDS011;15314;49.248;6.968;2023-10-31T03:38:44;8.30;;;7.70;;
27977;SDS011;15314;49.248;6.968;2023-10-31T03:39:45;8.90;;;8.30;;
27977;SDS011;15314;49.248;6.968;2023-10-31T03:40:46;8.70;;;7.97;;
27977;SDS011;15314;49.248;6.968;2023-10-31T03:41:46;8.05;;;7.63;;
27977;SDS011;15314;49.248;6.968;2023-10-31T03:42:47;8.75;;;8.15;;
27977;SDS011;15314;49.248;6.968;2023-10-31T03:43:47;8.40;;;7.90;;
27977;SDS011;15314;49.248;6.968;2023-10-31T03:44:48;8.63;;;8.15;;
27977;SDS011;15314;49.248;6.968;2023-10-31T03:45:49;8.50;;;8.07;;
27977;SDS011;15314;49.248;6.968;2023-10-31T03:46:49;8.30;;;7.80;;
27977;SDS011;15314;49.248;6.968;2023-10-31T03:47:50;8.60;;;7.90;;
27977;SDS011;15314;49.248;6.968;2023-10-31T03:48:50;8.00;;;7.50;;
27977;SDS011;15314;49.248;6.968;2023-10-31T03:49:51;8.05;;;7.75;;
27977;SDS011;15314;49.248;6.968;2023-10-31T03:50:52;8.10;;;7.72;;
27977;SDS011;15314;49.248;6.968;2023-10-31T03:51:53;8.20;;;7.60;;
27977;SDS011;15314;49.248;6.968;2023-10-31T03:52:53;8.52;;;8.02;;
27977;SDS011;15314;49.248;6.968;2023-10-31T03:53:54;7.60;;;7.20;;
27977;SDS011;15314;49.248;6.968;2023-10-31T03:54:54;7.38;;;6.97;;
27977;SDS011;15314;49.248;6.968;2023-10-31T03:55:55;7.90;;;7.30;;
27977;SDS011;15314;49.248;6.968;2023-10-31T03:56:58;7.75;;;7.30;;
27977;SDS011;15314;49.248;6.968;2023-10-31T03:57:59;7.53;;;7.00;;
27977;SDS011;15314;49.248;6.968;2023-10-31T03:58:59;7.95;;;7.30;;
27977;SDS011;15314;49.248;6.968;2023-10-31T04:00:00;7.35;;;6.68;;
27977;SDS011;15314;49.248;6.968;2023-10-31T04:01:01;7.38;;;6.93;;
27977;SDS011;15314;49.248;6.968;2023-10-31T04:02:02;7.07;;;6.57;;
27977;SDS011;15314;49.248;6.968;2023-10-31T04:03:03;8.73;;;6.97;;
27977;SDS011;15314;49.248;6.968;2023-10-31T04:04:04;7.93;;;7.35;;
27977;SDS011;15314;49.248;6.968;2023-10-31T04:05:05;8.25;;;7.55;;
27977;SDS011;15314;49.248;6.968;2023-10-31T04:06:06;7.20;;;6.80;;
27977;SDS011;15314;49.248;6.968;2023-10-31T04:07:07;8.25;;;7.57;;
27977;SDS011;15314;49.248;6.968;2023-10-31T04:08:08;7.88;;;7.43;;
27977;SDS011;15314;49.248;6.968;2023-10-31T04:09:09;7.80;;;7.40;;
27977;SDS011;15314;49.248;6.968;2023-10-31T04:10:10;7.45;;;6.85;;
27977;SDS011;15314;49.248;6.968;2023-10-31T04:11:10;7.53;;;7.00;;
27977;SDS011;15314;49.248;6.968;2023-10-31T04:12:11;7.53;;;7.13;;
27977;SDS011;15314;49.248;6.968;2023-10-31T04:13:12;8.05;;;7.45;;
27977;SDS011;15314;49.248;6.968;2023-10-31T04:14:13;7.75;;;7.30;;
27977;SDS011;15314;49.248;6.968;2023-10-31T04:15:13;7.47;;;7.07;;
27977;SDS011;15314;49.248;6.968;2023-10-31T04:16:14;7.70;;;7.20;;
27977;SDS011;15314;49.248;6.968;2023-10-31T04:17:15;9.40;;;7.53;;
27977;SDS011;15314;49.248;6.968;2023-10-31T04:18:15;7.97;;;7.47;;
27977;SDS011;15314;49.248;6.968;2023-10-31T04:19:16;7.15;;;6.68;;
27977;SDS011;15314;49.248;6.968;2023-10-31T04:20:17;7.60;;;7.00;;
27977;SDS011;15314;49.248;6.968;2023-10-31T04:21:18;8.10;;;7.70;;
27977;SDS011;15314;49.248;6.968;2023-10-31T04:22:18;7.90;;;7.22;;
27977;SDS011;15314;49.248;6.968;2023-10-31T04:23:19;7.30;;;6.95;;
27977;SDS011;15314;49.248;6.968;2023-10-31T04:24:20;7.43;;;7.05;;
27977;SDS011;15314;49.248;6.968;2023-10-31T04:25:20;7.95;;;6.82;;
27977;SDS011;15314;49.248;6.968;2023-10-31T04:26:21;7.63;;;7.13;;
27977;SDS011;15314;49.248;6.968;2023-10-31T04:27:21;7.65;;;7.15;;
27977;SDS011;15314;49.248;6.968;2023-10-31T04:28:22;7.90;;;7.30;;
27977;SDS011;15314;49.248;6.968;2023-10-31T04:29:23;7.47;;;7.07;;
27977;SDS011;15314;49.248;6.968;2023-10-31T04:30:23;7.20;;;6.75;;
27977;SDS011;15314;49.248;6.968;2023-10-31T04:31:24;7.10;;;6.70;;
27977;SDS011;15314;49.248;6.968;2023-10-31T04:32:25;7.43;;;7.03;;
27977;SDS011;15314;49.248;6.968;2023-10-31T04:33:25;7.80;;;7.30;;
27977;SDS011;15314;49.248;6.968;2023-10-31T04:34:26;7.90;;;7.30;;
27977;SDS011;15314;49.248;6.968;2023-10-31T04:35:27;7.32;;;6.93;;
27977;SDS011;15314;49.248;6.968;2023-10-31T04:36:28;7.93;;;7.28;;
27977;SDS011;15314;49.248;6.968;2023-10-31T04:37:28;7.82;;;7.43;;
27977;SDS011;15314;49.248;6.968;2023-10-31T04:38:29;8.18;;;7.75;;
27977;SDS011;15314;49.248;6.968;2023-10-31T04:39:29;8.20;;;7.50;;
27977;SDS011;15314;49.248;6.968;2023-10-31T04:40:30;9.55;;;6.82;;
27977;SDS011;15314;49.248;6.968;2023-10-31T04:41:31;7.43;;;6.82;;
27977;SDS011;15314;49.248;6.968;2023-10-31T04:42:32;7.65;;;6.93;;
27977;SDS011;15314;49.248;6.968;2023-10-31T04:43:33;7.13;;;6.50;;
27977;SDS011;15314;49.248;6.968;2023-10-31T04:44:34;7.50;;;7.00;;
27977;SDS011;15314;49.248;6.968;2023-10-31T04:45:34;7.50;;;7.10;;
27977;SDS011;15314;49.248;6.968;2023-10-31T04:46:35;7.40;;;6.80;;
27977;SDS011;15314;49.248;6.968;2023-10-31T04:47:36;7.47;;;7.07;;
27977;SDS011;15314;49.248;6.968;2023-10-31T04:48:36;7.47;;;7.13;;
27977;SDS011;15314;49.248;6.968;2023-10-31T04:49:37;7.82;;;7.22;;
27977;SDS011;15314;49.248;6.968;2023-10-31T04:50:38;8.95;;;6.95;;
27977;SDS011;15314;49.248;6.968;2023-10-31T04:51:39;7.63;;;7.18;;
27977;SDS011;15314;49.248;6.968;2023-10-31T04:52:39;7.93;;;7.53;;
27977;SDS011;15314;49.248;6.968;2023-10-31T04:53:40;7.43;;;6.70;;
27977;SDS011;15314;49.248;6.968;2023-10-31T04:54:40;7.95;;;7.30;;
27977;SDS011;15314;49.248;6.968;2023-10-31T04:55:41;7.35;;;6.90;;
27977;SDS011;15314;49.248;6.968;2023-10-31T04:56:42;8.20;;;7.43;;
27977;SDS011;15314;49.248;6.968;2023-10-31T04:57:42;7.68;;;7.00;;
27977;SDS011;15314;49.248;6.968;2023-10-31T04:58:43;7.88;;;6.90;;
27977;SDS011;15314;49.248;6.968;2023-10-31T04:59:44;7.82;;;7.05;;
27977;SDS011;15314;49.248;6.968;2023-10-31T05:00:46;7.38;;;7.05;;
27977;SDS011;15314;49.248;6.968;2023-10-31T05:01:50;7.57;;;7.07;;
27977;SDS011;15314;49.248;6.968;2023-10-31T05:02:52;7.85;;;7.45;;
27977;SDS011;15314;49.248;6.968;2023-10-31T05:03:52;8.20;;;7.57;;
27977;SDS011;15314;49.248;6.968;2023-10-31T05:04:53;8.30;;;7.70;;
27977;SDS011;15314;49.248;6.968;2023-10-31T05:05:54;8.40;;;7.68;;
27977;SDS011;15314;49.248;6.968;2023-10-31T05:06:54;8.23;;;7.53;;
27977;SDS011;15314;49.248;6.968;2023-10-31T05:07:56;8.90;;;7.15;;
27977;SDS011;15314;49.248;6.968;2023-10-31T05:08:56;7.90;;;7.50;;
27977;SDS011;15314;49.248;6.968;2023-10-31T05:09:57;8.27;;;7.35;;
27977;SDS011;15314;49.248;6.968;2023-10-31T05:10:58;8.18;;;7.50;;
27977;SDS011;15314;49.248;6.968;2023-10-31T05:11:59;8.65;;;7.75;;
27977;SDS011;15314;49.248;6.968;2023-10-31T05:13:00;8.18;;;7.10;;
27977;SDS011;15314;49.248;6.968;2023-10-31T05:14:02;8.73;;;7.90;;
27977;SDS011;15314;49.248;6.968;2023-10-31T05:15:03;9.00;;;7.97;;
27977;SDS011;15314;49.248;6.968;2023-10-31T05:16:04;8.40;;;7.78;;
27977;SDS011;15314;49.248;6.968;2023-10-31T05:17:05;7.82;;;7.30;;
27977;SDS011;15314;49.248;6.968;2023-10-31T05:18:06;9.25;;;7.32;;
27977;SDS011;15314;49.248;6.968;2023-10-31T05:19:06;9.25;;;8.15;;
27977;SDS011;15314;49.248;6.968;2023-10-31T05:20:07;8.00;;;7.60;;
27977;SDS011;15314;49.248;6.968;2023-10-31T05:21:09;8.57;;;8.00;;
27977;SDS011;15314;49.248;6.968;2023-10-31T05:22:09;8.23;;;7.50;;
27977;SDS011;15314;49.248;6.968;2023-10-31T05:23:10;8.00;;;7.50;;
27977;SDS011;15314;49.248;6.968;2023-10-31T05:24:11;8.13;;;7.43;;
27977;SDS011;15314;49.248;6.968;2023-10-31T05:25:12;8.27;;;7.72;;
27977;SDS011;15314;49.248;6.968;2023-10-31T05:26:12;8.07;;;7.50;;
27977;SDS011;15314;49.248;6.968;2023-10-31T05:27:13;8.68;;;7.97;;
27977;SDS011;15314;49.248;6.968;2023-10-31T05:28:14;8.60;;;7.90;;
27977;SDS011;15314;49.248;6.968;2023-10-31T05:29:15;8.85;;;8.23;;
27977;SDS011;15314;49.248;6.968;2023-10-31T05:30:15;11.82;;;10.63;;
27977;SDS011;15314;49.248;6.968;2023-10-31T05:31:16;11.25;;;9.27;;
27977;SDS011;15314;49.248;6.968;2023-10-31T05:32:17;8.60;;;7.97;;
27977;SDS011;15314;49.248;6.968;2023-10-31T05:33:18;8.50;;;8.02;;
27977;SDS011;15314;49.248;6.968;2023-10-31T05:34:20;7.85;;;7.18;;
27977;SDS011;15314;49.248;6.968;2023-10-31T05:35:21;9.32;;;8.18;;
27977;SDS011;15314;49.248;6.968;2023-10-31T05:36:22;8.75;;;8.05;;
27977;SDS011;15314;49.248;6.968;2023-10-31T05:37:23;8.40;;;7.70;;
27977;SDS011;15314;49.248;6.968;2023-10-31T05:38:24;8.20;;;7.55;;
27977;SDS011;15314;49.248;6.968;2023-10-31T05:39:25;8.65;;;7.72;;
27977;SDS011;15314;49.248;6.968;2023-10-31T05:40:25;9.27;;;8.40;;
27977;SDS011;15314;49.248;6.968;2023-10-31T05:41:27;8.52;;;7.88;;
27977;SDS011;15314;49.248;6.968;2023-10-31T05:42:28;8.85;;;8.07;;
27977;SDS011;15314;49.248;6.968;2023-10-31T05:43:28;8.77;;;8.00;;
27977;SDS011;15314;49.248;6.968;2023-10-31T05:44:30;8.48;;;7.75;;
27977;SDS011;15314;49.248;6.968;2023-10-31T05:45:30;8.00;;;7.30;;
27977;SDS011;15314;49.248;6.968;2023-10-31T05:46:31;8.32;;;7.60;;
27977;SDS011;15314;49.248;6.968;2023-10-31T05:47:37;8.32;;;7.63;;
27977;SDS011;15314;49.248;6.968;2023-10-31T05:48:38;8.02;;;7.32;;
27977;SDS011;15314;49.248;6.968;2023-10-31T05:49:39;8.07;;;7.57;;
27977;SDS011;15314;49.248;6.968;2023-10-31T05:50:42;8.65;;;8.00;;
27977;SDS011;15314;49.248;6.968;2023-10-31T05:51:43;7.63;;;7.00;;
27977;SDS011;15314;49.248;6.968;2023-10-31T05:52:43;7.68;;;7.18;;
27977;SDS011;15314;49.248;6.968;2023-10-31T05:53:45;7.25;;;6.75;;
27977;SDS011;15314;49.248;6.968;2023-10-31T05:54:47;8.02;;;7.25;;
27977;SDS011;15314;49.248;6.968;2023-10-31T05:55:47;10.90;;;7.10;;
27977;SDS011;15314;49.248;6.968;2023-10-31T05:56:48;13.35;;;7.97;;
27977;SDS011;15314;49.248;6.968;2023-10-31T05:57:49;8.52;;;7.78;;
27977;SDS011;15314;49.248;6.968;2023-10-31T05:58:50;8.40;;;7.70;;
27977;SDS011;15314;49.248;6.968;2023-10-31T05:59:50;8.50;;;7.82;;
27977;SDS011;15314;49.248;6.968;2023-10-31T06:00:51;9.02;;;8.43;;
27977;SDS011;15314;49.248;6.968;2023-10-31T06:01:52;8.75;;;7.85;;
27977;SDS011;15314;49.248;6.968;2023-10-31T06:02:52;8.80;;;8.02;;
27977;SDS011;15314;49.248;6.968;2023-10-31T06:03:53;8.82;;;8.15;;
27977;SDS011;15314;49.248;6.968;2023-10-31T06:04:53;8.43;;;7.70;;
27977;SDS011;15314;49.248;6.968;2023-10-31T06:05:54;8.32;;;7.50;;
27977;SDS011;15314;49.248;6.968;2023-10-31T06:06:55;9.30;;;8.45;;